Time;durP1;ratioP1;P1;durP2;ratioP2;P2;SDS_P1;SDS_P2;PMS_P1;PMS_P2;Temp;Humidity;BMP_temperature;BMP_pressure;BME280_temperature;BME280_humidity;BME280_pressure;Samples;Min_cycle;Max_cycle;Signal;HPM_P1;HPM_P2
2023/01/26 00:00:48;;;;;;;11.90;7.68;;;;;;;-4.85;88.23;94297.16;4979927;28;20047;-78
2023/01/26 00:03:13;;;;;;;14.25;8.38;;;;;;;-5.14;88.12;94253.56;4979599;28;20045;-79
2023/01/26 00:05:39;;;;;;;13.88;8.75;;;;;;;-5.10;88.54;94252.97;4978919;28;20035;-80
2023/01/26 00:08:05;;;;;;;12.20;8.35;;;;;;;-4.73;88.12;94292.13;4980721;28;20525;-78
2023/01/26 00:10:30;;;;;;;14.82;9.07;;;;;;;-5.07;87.81;94254.34;4978657;28;20038;-80
2023/01/26 00:12:56;;;;;;;15.57;8.82;;;;;;;-4.85;87.74;94278.19;4979732;28;20038;-79
2023/01/26 00:15:22;;;;;;;14.27;7.88;;;;;;;-4.76;87.68;94298.50;4979723;28;20015;-79
2023/01/26 00:17:50;;;;;;;15.90;9.00;;;;;;;-4.91;87.70;94278.03;4980662;28;20046;-79
2023/01/26 00:20:16;;;;;;;15.02;10.35;;;;;;;-4.70;87.67;94302.88;4979021;28;20057;-78
2023/01/26 00:22:41;;;;;;;14.15;8.57;;;;;;;-4.87;87.54;94278.41;4980458;28;20498;-78
2023/01/26 00:25:07;;;;;;;14.50;9.43;;;;;;;-4.92;87.59;94280.81;4961351;28;20093;-78
2023/01/26 00:27:32;;;;;;;14.68;8.80;;;;;;;-5.08;87.74;94265.72;4980632;28;20026;-77
2023/01/26 00:29:58;;;;;;;12.85;9.40;;;;;;;-4.78;87.38;94289.34;4961636;28;20038;-78
2023/01/26 00:32:23;;;;;;;13.77;10.07;;;;;;;-5.07;87.52;94249.94;4980065;28;20082;-79
2023/01/26 00:34:48;;;;;;;15.10;9.68;;;;;;;-5.20;87.64;94231.06;4973812;28;20049;-78
2023/01/26 00:37:14;;;;;;;16.77;9.95;;;;;;;-5.01;87.63;94235.34;4980404;28;20039;-78
2023/01/26 00:39:39;;;;;;;16.25;10.27;;;;;;;-4.79;87.65;94274.78;4977385;28;20019;-79
2023/01/26 00:42:05;;;;;;;15.02;10.25;;;;;;;-4.85;87.44;94270.41;4979049;28;20038;-78
2023/01/26 00:44:30;;;;;;;13.77;10.63;;;;;;;-5.03;87.58;94238.19;4978620;28;20042;-78
2023/01/26 00:46:56;;;;;;;14.15;9.77;;;;;;;-4.91;87.35;94257.25;4978498;28;20073;-78
2023/01/26 00:49:21;;;;;;;16.70;10.75;;;;;;;-4.92;87.28;94260.06;4978620;28;20034;-77
2023/01/26 00:51:46;;;;;;;16.95;10.88;;;;;;;-5.01;87.33;94240.53;4978138;28;20133;-79
2023/01/26 00:54:12;;;;;;;16.20;10.15;;;;;;;-5.07;87.51;94251.72;4978253;28;20597;-79
2023/01/26 00:56:37;;;;;;;16.65;10.20;;;;;;;-5.06;87.21;94243.75;4977568;28;20042;-78
2023/01/26 00:59:04;;;;;;;15.05;9.88;;;;;;;-5.28;87.53;94200.19;4977030;28;20034;-79
2023/01/26 01:01:30;;;;;;;15.00;10.27;;;;;;;-5.21;87.44;94221.69;4977376;28;20046;-79
2023/01/26 01:03:55;;;;;;;15.40;10.10;;;;;;;-5.51;87.04;94165.16;4977583;28;20652;-78
2023/01/26 01:06:21;;;;;;;14.68;9.98;;;;;;;-5.01;87.01;94214.59;4977168;28;20080;-78
2023/01/26 01:08:46;;;;;;;17.90;10.40;;;;;;;-4.92;87.02;94240.09;4976956;28;20030;-78
2023/01/26 01:11:11;;;;;;;13.57;9.27;;;;;;;-4.88;86.85;94243.88;4978286;28;20633;-78
2023/01/26 01:13:38;;;;;;;14.07;8.07;;;;;;;-4.94;86.86;94243.91;4978285;28;20034;-78
2023/01/26 01:16:05;;;;;;;15.57;9.85;;;;;;;-4.95;86.53;94235.34;4977555;28;20620;-78
2023/01/26 01:18:31;;;;;;;18.85;9.82;;;;;;;-4.98;86.63;94229.78;4976654;28;20068;-78
2023/01/26 01:20:56;;;;;;;12.70;9.32;;;;;;;-5.00;86.29;94211.81;4975000;28;20468;-79
2023/01/26 01:23:22;;;;;;;17.75;9.30;;;;;;;-4.91;86.35;94230.53;4978246;28;20088;-79
2023/01/26 01:25:56;;;;;;;14.40;9.35;;;;;;;-4.92;86.40;94234.91;4979138;28;20454;-78
2023/01/26 01:28:21;;;;;;;14.18;9.95;;;;;;;-5.16;86.59;94207.09;4978180;28;20038;-79
2023/01/26 01:30:47;;;;;;;15.82;9.60;;;;;;;-4.93;86.73;94227.34;4978424;28;20034;-79
2023/01/26 01:33:12;;;;;;;16.50;8.95;;;;;;;-4.94;86.49;94221.38;4978740;28;20030;-79
2023/01/26 01:35:38;;;;;;;13.40;8.20;;;;;;;-5.02;86.39;94229.38;4960038;28;20422;-79
2023/01/26 01:38:03;;;;;;;13.45;7.60;;;;;;;-5.22;86.24;94179.38;4978688;28;21117;-78
2023/01/26 01:40:29;;;;;;;13.73;8.65;;;;;;;-5.38;86.12;94162.53;4976883;28;20057;-78
2023/01/26 01:42:54;;;;;;;15.05;8.90;;;;;;;-5.00;86.17;94196.25;4959990;28;20097;-78
2023/01/26 01:45:25;;;;;;;10.98;7.53;;;;;;;-4.93;85.56;94229.94;4978036;28;20026;-78
2023/01/26 01:47:54;;;;;;;13.50;8.70;;;;;;;-4.85;85.68;94229.69;4978893;28;20081;-78
2023/01/26 01:50:20;;;;;;;14.27;7.68;;;;;;;-4.82;85.40;94229.28;4978271;28;20041;-79
2023/01/26 01:52:46;;;;;;;12.68;8.23;;;;;;;-4.85;85.23;94223.72;4947187;28;20038;-78
2023/01/26 01:55:15;;;;;;;13.57;7.68;;;;;;;-5.18;85.41;94184.97;4977198;28;20082;-78
2023/01/26 01:57:51;;;;;;;26.50;9.15;;;;;;;-5.23;85.40;94184.81;4975597;28;20022;-78
2023/01/26 02:00:20;;;;;;;11.32;7.40;;;;;;;-5.25;85.78;94181.59;4977631;28;20022;-79
2023/01/26 02:05:44;;;;;;;10.98;7.22;;;;;;;-5.06;85.86;94217.03;4976087;28;20096;-78
2023/01/26 02:08:10;;;;;;;;;;;;;;;-4.98;85.74;94211.63;4974823;28;20507;-79
2023/01/26 02:10:36;;;;;;;9.93;7.53;;;;;;;-5.17;85.60;94182.16;4977226;28;20294;-78
2023/01/26 02:13:04;;;;;;;11.57;7.53;;;;;;;-5.16;85.69;94172.59;4977378;28;20030;-79
2023/01/26 02:15:29;;;;;;;10.85;7.53;;;;;;;-5.00;85.32;94185.06;4976646;28;20042;-79
2023/01/26 02:17:57;;;;;;;11.70;7.07;;;;;;;-5.03;85.58;94190.69;4977110;28;20065;-79
2023/01/26 02:20:49;;;;;;;13.15;7.70;;;;;;;-4.92;85.44;94184.81;4975471;28;20688;-78
2023/01/26 02:23:33;;;;;;;12.10;7.25;;;;;;;-4.89;85.28;94172.25;4967967;28;20133;-79
2023/01/26 02:26:17;;;;;;;8.75;6.72;;;;;;;-5.14;85.66;94163.59;4977496;28;20050;-79
2023/01/26 02:28:44;;;;;;;10.63;7.18;;;;;;;-5.12;85.92;94168.56;4976726;28;20072;-78
2023/01/26 02:31:11;;;;;;;10.68;7.68;;;;;;;-5.23;85.84;94153.69;4978707;28;20074;-78
2023/01/26 02:33:37;;;;;;;11.45;8.07;;;;;;;-5.16;86.05;94168.19;4977879;28;20364;-78
2023/01/26 02:36:04;;;;;;;9.70;6.38;;;;;;;-5.23;85.94;94136.34;4972920;28;20037;-79
2023/01/26 02:38:37;;;;;;;13.80;8.13;;;;;;;-5.14;85.64;94155.03;4975994;28;20656;-79
2023/01/26 02:41:03;;;;;;;12.27;7.45;;;;;;;-5.17;85.94;94164.00;4977032;28;20398;-78
2023/01/26 02:43:29;;;;;;;12.00;7.13;;;;;;;-5.28;85.94;94130.97;4976906;28;20047;-78
2023/01/26 02:45:54;;;;;;;11.60;6.38;;;;;;;-5.06;86.02;94154.78;4966107;28;20046;-78
2023/01/26 02:51:05;;;;;;;12.85;6.68;;;;;;;-5.24;85.83;94126.16;4976403;28;20609;-79
2023/01/26 02:53:31;;;;;;;11.10;6.45;;;;;;;-5.25;86.06;94134.94;4977664;28;20045;-78
2023/01/26 02:55:56;;;;;;;10.60;6.57;;;;;;;-5.25;85.92;94132.34;4976661;28;20034;-78
2023/01/26 02:58:22;;;;;;;9.48;6.80;;;;;;;-5.25;86.20;94134.94;4978918;28;20651;-79
2023/01/26 03:00:47;;;;;;;12.43;7.22;;;;;;;-5.24;86.20;94114.00;4958172;28;20169;-78
2023/01/26 03:03:15;;;;;;;10.75;7.03;;;;;;;-5.24;85.90;94110.59;4980700;28;20418;-78
2023/01/26 03:05:41;;;;;;;7.57;6.18;;;;;;;-5.43;85.49;94086.38;4981414;28;20035;-78
2023/01/26 03:08:07;;;;;;;11.60;7.57;;;;;;;-5.38;85.73;94102.91;4981353;28;20057;-78
2023/01/26 03:10:32;;;;;;;10.27;6.88;;;;;;;-5.15;85.95;94120.50;4981668;28;20123;-79
2023/01/26 03:12:58;;;;;;;13.77;7.60;;;;;;;-5.36;85.48;94108.66;4980852;28;20037;-78
2023/01/26 03:15:46;;;;;;;10.00;6.80;;;;;;;-5.42;85.88;94101.72;4982269;28;20037;-78
2023/01/26 03:29:14;;;;;;;11.63;7.78;;;;;;;-5.41;85.78;94074.78;4978339;28;20347;-79
2023/01/26 03:31:39;;;;;;;11.30;6.60;;;;;;;-5.42;86.17;94083.56;4977621;28;20042;-79
2023/01/26 03:34:05;;;;;;;10.32;6.75;;;;;;;-5.38;86.31;94094.34;4977844;28;20167;-79
2023/01/26 03:36:30;;;;;;;8.55;6.13;;;;;;;-5.38;86.26;94099.50;4977045;28;20034;-78
2023/01/26 03:38:56;;;;;;;9.98;7.40;;;;;;;-5.51;86.34;94066.66;4961362;28;20042;-78
2023/01/26 03:57:47;;;;;;;8.00;6.03;;;;;;;-5.35;85.33;94057.59;4979193;28;20061;-78
2023/01/26 04:00:13;;;;;;;9.90;6.68;;;;;;;-5.28;84.70;94042.03;4982010;28;20108;-78
2023/01/26 04:08:19;;;;;;;13.85;7.97;;;;;;;-5.42;85.47;94043.91;4980620;28;20653;-80
2023/01/26 04:10:45;;;;;;;10.27;6.80;;;;;;;-5.60;85.28;94023.06;4979033;28;20042;-78
2023/01/26 04:21:34;;;;;;;10.95;6.88;;;;;;;-5.42;85.31;94018.75;4980871;28;20077;-80
2023/01/26 04:24:08;;;;;;;11.95;6.65;;;;;;;-5.21;85.17;94040.16;4981387;28;20046;-78
2023/01/26 04:26:35;;;;;;;10.27;6.53;;;;;;;-5.41;84.92;94007.41;4979062;28;20503;-78
2023/01/26 04:29:08;;;;;;;8.57;6.28;;;;;;;-5.39;85.10;94015.75;4979792;28;20045;-78
2023/01/26 04:31:34;;;;;;;11.82;8.48;;;;;;;-5.32;85.18;94026.88;4979911;28;20034;-78
2023/01/26 04:34:01;;;;;;;11.10;7.13;;;;;;;-5.45;85.27;94006.22;4980009;28;20046;-78
2023/01/26 04:36:26;;;;;;;7.72;6.35;;;;;;;-5.56;84.82;93987.97;4963123;28;20042;-79
2023/01/26 04:38:52;;;;;;;10.32;7.18;;;;;;;-5.60;84.55;93977.22;4979637;28;20034;-79
2023/01/26 04:41:17;;;;;;;8.70;6.32;;;;;;;-5.13;84.17;94029.56;4963066;28;20549;-81
2023/01/26 04:43:43;;;;;;;9.63;6.43;;;;;;;-5.20;83.87;94023.59;4962150;28;20030;-80
2023/01/26 04:46:09;;;;;;;11.20;7.28;;;;;;;-5.35;83.72;94027.31;4974109;28;20272;-79
2023/01/26 04:48:35;;;;;;;10.35;6.90;;;;;;;-5.17;83.52;94034.34;4979002;28;20461;-80
2023/01/26 04:51:04;;;;;;;9.32;6.10;;;;;;;-5.20;83.13;94044.34;4952923;28;20018;-79
2023/01/26 04:53:31;;;;;;;8.25;6.30;;;;;;;-5.28;82.88;94042.03;4978921;28;20104;-78
2023/01/26 04:55:57;;;;;;;9.25;6.18;;;;;;;-5.53;83.10;94008.28;4979266;28;20126;-79
2023/01/26 04:58:22;;;;;;;6.63;5.20;;;;;;;-5.29;82.98;94041.22;4979019;28;20034;-78
2023/01/26 05:00:52;;;;;;;8.48;5.55;;;;;;;-5.13;82.94;94039.94;4978295;28;20057;-78
2023/01/26 05:03:18;;;;;;;10.40;6.82;;;;;;;-5.18;82.71;94019.03;4962288;28;20022;-80
2023/01/26 05:05:44;;;;;;;10.45;6.55;;;;;;;-5.04;82.05;94021.28;4980185;28;20044;-78
2023/01/26 05:08:09;;;;;;;9.00;6.20;;;;;;;-5.37;82.31;93982.63;4960996;28;20050;-78
2023/01/26 05:10:35;;;;;;;7.28;5.18;;;;;;;-4.96;81.95;94030.59;4979790;28;20643;-81
2023/01/26 05:13:00;;;;;;;9.23;6.22;;;;;;;-5.33;82.18;93983.81;4977377;28;20054;-79
2023/01/26 05:15:26;;;;;;;9.80;6.28;;;;;;;-4.89;81.84;94015.78;4981878;28;20026;-79
2023/01/26 05:17:51;;;;;;;10.63;6.53;;;;;;;-4.97;81.65;94019.44;4977687;28;20042;-79
2023/01/26 05:20:17;;;;;;;24.33;7.32;;;;;;;-4.90;81.23;94009.00;4980434;28;20049;-80
2023/01/26 05:22:43;;;;;;;11.13;7.25;;;;;;;-5.00;81.30;94019.06;4959790;28;20037;-80
2023/01/26 05:25:09;;;;;;;10.00;6.32;;;;;;;-4.91;81.44;94030.75;4980619;28;20180;-79
2023/01/26 05:27:35;;;;;;;10.05;7.15;;;;;;;-4.90;81.14;94009.00;4976827;28;20355;-79
2023/01/26 05:30:01;;;;;;;9.40;6.50;;;;;;;-4.67;80.80;94029.16;4980821;28;20906;-80
2023/01/26 05:32:27;;;;;;;10.20;5.95;;;;;;;-4.77;80.70;94018.47;4979028;28;20050;-78
2023/01/26 05:34:53;;;;;;;8.68;6.60;;;;;;;-4.70;80.67;94019.22;4960800;28;20058;-79
2023/01/26 05:37:18;;;;;;;8.55;5.85;;;;;;;-4.84;80.81;94015.16;4978835;28;20661;-77
2023/01/26 05:39:44;;;;;;;10.63;6.20;;;;;;;-4.79;81.15;94021.28;4976147;28;20582;-79
2023/01/26 05:42:12;;;;;;;10.90;7.72;;;;;;;-4.77;80.82;94006.28;4980143;28;20022;-80
2023/01/26 05:44:38;;;;;;;12.30;7.75;;;;;;;-5.40;80.84;93933.03;4953215;28;20054;-78
2023/01/26 05:47:04;;;;;;;12.57;7.78;;;;;;;-5.17;81.03;93984.31;4979785;28;20177;-81
2023/01/26 05:49:30;;;;;;;11.05;7.25;;;;;;;-5.27;81.00;93960.66;4977754;28;20030;-80
2023/01/26 05:51:56;;;;;;;14.57;8.35;;;;;;;-5.07;81.28;93971.63;4979249;28;20046;-81
2023/01/26 05:54:22;;;;;;;9.95;8.20;;;;;;;-4.79;81.27;94016.09;4980078;28;20739;-79
2023/01/26 05:56:47;;;;;;;17.35;8.77;;;;;;;-4.82;81.37;94021.69;4979641;28;20046;-80
2023/01/26 05:59:13;;;;;;;15.75;8.60;;;;;;;-4.79;81.22;94029.06;4977673;28;20423;-79
2023/01/26 06:01:38;;;;;;;14.45;8.75;;;;;;;-4.92;80.89;94001.44;4978616;28;20515;-80
2023/01/26 06:04:04;;;;;;;16.80;9.27;;;;;;;-4.77;81.00;94029.63;4978903;28;20499;-79
2023/01/26 06:06:29;;;;;;;13.00;9.13;;;;;;;-4.96;81.22;94005.47;4978327;28;20069;-79
2023/01/26 06:08:56;;;;;;;14.35;8.88;;;;;;;-4.99;81.17;94005.09;4978481;28;20034;-79
2023/01/26 06:11:21;;;;;;;16.15;9.43;;;;;;;-4.92;81.22;94011.81;4979203;28;20108;-80
2023/01/26 06:13:47;;;;;;;13.48;9.15;;;;;;;-5.08;81.32;93967.47;4978937;28;20046;-80
2023/01/26 06:16:13;;;;;;;15.27;9.02;;;;;;;-4.89;81.28;94010.59;4977185;28;20182;-80
2023/01/26 06:18:38;;;;;;;15.15;9.15;;;;;;;-5.07;81.03;93977.63;4977981;28;20039;-80
2023/01/26 06:21:04;;;;;;;16.42;9.55;;;;;;;-5.01;81.27;93984.56;4977340;28;20120;-80
2023/01/26 06:23:29;;;;;;;14.18;9.43;;;;;;;-4.98;81.74;93998.91;4978583;28;20065;-80
2023/01/26 06:25:58;;;;;;;14.38;8.02;;;;;;;-5.03;81.38;93978.81;4977151;28;20046;-80
2023/01/26 06:28:23;;;;;;;15.60;9.75;;;;;;;-5.13;81.50;93946.56;4978197;28;20194;-82
2023/01/26 06:30:49;;;;;;;20.50;10.27;;;;;;;-5.08;81.27;93949.31;4977696;28;20022;-79
2023/01/26 06:33:14;;;;;;;17.95;10.07;;;;;;;-4.93;81.54;93973.13;4980078;28;20537;-79
2023/01/26 06:35:39;;;;;;;16.13;10.20;;;;;;;-4.95;81.54;93960.38;4976872;28;20039;-79
2023/01/26 06:38:05;;;;;;;16.48;9.82;;;;;;;-5.24;81.49;93929.09;4974979;28;20038;-82
2023/01/26 06:40:31;;;;;;;16.27;10.20;;;;;;;-4.77;81.77;93993.31;4975984;28;20046;-79
2023/01/26 06:42:56;;;;;;;12.43;8.93;;;;;;;-4.85;81.55;93982.44;4977487;28;20038;-80
2023/01/26 06:45:22;;;;;;;29.23;10.93;;;;;;;-4.80;81.60;93983.38;4977587;28;20030;-80
2023/01/26 06:47:48;;;;;;;16.50;10.52;;;;;;;-4.77;81.66;93982.94;4968173;28;20513;-81
2023/01/26 06:50:15;;;;;;;19.48;10.30;;;;;;;-4.73;81.59;93997.06;4978089;28;20339;-81
2023/01/26 06:52:43;;;;;;;21.38;11.55;;;;;;;-4.67;81.77;94003.19;4976982;28;20038;-79
2023/01/26 06:55:20;;;;;;;21.83;9.75;;;;;;;-4.60;81.59;93983.97;4978722;28;20047;-77
2023/01/26 06:57:46;;;;;;;17.88;11.55;;;;;;;-4.81;81.44;93961.03;4978141;28;20570;-78
2023/01/26 07:00:12;;;;;;;16.98;10.68;;;;;;;-4.60;81.73;93983.97;4979142;28;20042;-77
2023/01/26 07:02:38;;;;;;;20.98;11.57;;;;;;;-4.58;81.49;93981.94;4977686;28;20616;-78
2023/01/26 07:05:04;;;;;;;17.10;10.23;;;;;;;-4.75;81.31;93962.75;4960108;28;20125;-79
2023/01/26 07:07:29;;;;;;;17.92;9.73;;;;;;;-4.66;81.63;93979.63;4976772;28;20050;-80
2023/01/26 07:09:54;;;;;;;22.60;12.23;;;;;;;-4.56;81.90;93979.94;4974759;28;20034;-79
2023/01/26 07:12:20;;;;;;;18.38;10.20;;;;;;;-4.57;81.73;93965.38;4974276;28;20073;-78
2023/01/26 07:14:45;;;;;;;18.90;10.90;;;;;;;-4.73;81.43;93947.00;4975679;28;20088;-78
2023/01/26 07:17:11;;;;;;;18.90;11.25;;;;;;;-4.58;81.45;93965.56;4975102;28;20073;-79
2023/01/26 07:19:37;;;;;;;16.50;11.18;;;;;;;-4.65;81.27;93951.88;4975669;28;20077;-80
2023/01/26 07:22:02;;;;;;;15.70;11.20;;;;;;;-4.56;81.48;93958.38;4953457;28;20457;-79
2023/01/26 07:24:28;;;;;;;18.90;11.52;;;;;;;-4.44;81.12;93960.03;4976147;28;20076;-80
2023/01/26 07:26:54;;;;;;;17.73;10.18;;;;;;;-4.54;80.98;93949.34;4976274;28;20030;-79
2023/01/26 07:29:20;;;;;;;17.80;10.43;;;;;;;-4.71;80.98;93927.59;4977400;28;20057;-81
2023/01/26 07:31:46;;;;;;;19.10;9.57;;;;;;;-4.66;80.87;93932.91;4976145;28;20042;-79
2023/01/26 07:34:11;;;;;;;18.08;10.02;;;;;;;-4.37;80.82;93956.56;4974905;28;20042;-80
2023/01/26 07:36:37;;;;;;;22.90;13.45;;;;;;;-4.32;80.68;93961.91;4967104;28;20141;-79
2023/01/26 07:39:03;;;;;;;16.88;9.60;;;;;;;-4.26;80.46;93953.25;4951189;28;20065;-79
2023/01/26 07:41:31;;;;;;;21.20;9.50;;;;;;;-4.31;80.07;93934.94;4950055;28;20104;-80
2023/01/26 07:43:56;;;;;;;15.35;9.55;;;;;;;-4.56;79.60;93886.50;4953873;28;20150;-79
2023/01/26 07:46:23;;;;;;;14.15;8.55;;;;;;;-4.32;79.00;93905.56;4953890;28;20143;-81
2023/01/26 07:48:49;;;;;;;18.25;9.27;;;;;;;-4.07;79.14;93958.19;4953609;28;20065;-80
2023/01/26 07:51:14;;;;;;;16.15;10.38;;;;;;;-4.06;78.42;93957.19;4953756;28;20422;-78
2023/01/26 07:53:42;;;;;;;15.80;8.93;;;;;;;-4.04;78.60;93957.75;4940547;28;20058;-80
2023/01/26 07:56:12;;;;;;;11.55;7.88;;;;;;;-4.09;78.98;93959.41;4955958;28;20078;-79
2023/01/26 07:58:37;;;;;;;13.57;9.15;;;;;;;-4.07;78.70;93957.41;4957200;28;20707;-79
2023/01/26 08:01:09;;;;;;;9.55;6.78;;;;;;;-4.22;78.80;93936.22;4959212;28;20695;-80
2023/01/26 08:03:34;;;;;;;14.63;8.73;;;;;;;-4.00;78.90;93964.09;4956575;28;20069;-78
2023/01/26 08:06:00;;;;;;;17.17;9.98;;;;;;;-4.16;78.87;93915.38;4956519;28;20124;-80
2023/01/26 08:08:26;;;;;;;12.05;7.95;;;;;;;-4.26;78.11;93914.28;4956087;28;20823;-79
2023/01/26 08:10:55;;;;;;;13.43;8.35;;;;;;;-4.64;78.16;93832.31;4958306;28;20240;-79
2023/01/26 08:13:20;;;;;;;9.32;7.20;;;;;;;-4.33;77.97;93883.19;4956108;28;20088;-79
2023/01/26 08:15:46;;;;;;;13.32;9.27;;;;;;;-4.24;78.36;93899.25;4940971;28;20057;-79
2023/01/26 08:18:11;;;;;;;11.00;6.40;;;;;;;-3.95;78.04;93934.84;4955614;28;20037;-80
2023/01/26 08:20:36;;;;;;;10.18;7.57;;;;;;;-4.29;78.43;93899.16;4958154;28;20510;-79
2023/01/26 08:23:02;;;;;;;12.75;8.10;;;;;;;-4.14;79.00;93915.13;4960082;28;20046;-79
2023/01/26 08:25:27;;;;;;;16.60;9.15;;;;;;;-3.92;78.94;93934.41;4958719;28;20122;-78
2023/01/26 08:27:53;;;;;;;14.05;11.10;;;;;;;-4.01;79.03;93920.16;4958291;28;21202;-81
2023/01/26 08:30:19;;;;;;;12.85;8.73;;;;;;;-4.26;79.06;93896.13;4960009;28;20022;-80
2023/01/26 08:32:44;;;;;;;16.33;8.55;;;;;;;-4.03;79.22;93922.97;4961587;28;20058;-79
2023/01/26 08:35:10;;;;;;;11.85;9.23;;;;;;;-4.09;79.12;93907.47;4959857;28;20045;-79
2023/01/26 08:37:35;;;;;;;15.77;9.88;;;;;;;-4.05;79.18;93926.81;4972190;28;20054;-79
2023/01/26 08:40:01;;;;;;;11.73;7.75;;;;;;;-3.95;79.27;93919.25;4977529;28;20125;-79
2023/01/26 08:42:26;;;;;;;13.90;9.52;;;;;;;-4.18;79.45;93877.63;4980184;28;20026;-77
2023/01/26 08:44:51;;;;;;;15.55;7.97;;;;;;;-4.22;79.04;93889.47;4977121;28;20039;-78
2023/01/26 08:47:17;;;;;;;12.30;7.30;;;;;;;-4.30;79.14;93887.97;4979487;28;20084;-79
2023/01/26 08:49:42;;;;;;;13.10;8.75;;;;;;;-4.11;79.51;93899.13;4980414;28;20486;-78
2023/01/26 08:52:08;;;;;;;9.90;6.72;;;;;;;-3.97;79.00;93934.28;4978977;28;20069;-79
2023/01/26 08:54:33;;;;;;;12.02;7.47;;;;;;;-4.11;78.57;93896.50;4980471;28;20061;-79
2023/01/26 08:56:58;;;;;;;10.38;7.40;;;;;;;-3.90;78.60;93921.97;4960217;28;20315;-80
2023/01/26 08:59:24;;;;;;;11.15;8.10;;;;;;;-4.08;78.44;93885.69;4979051;28;20038;-79
2023/01/26 09:01:49;;;;;;;9.98;7.70;;;;;;;-4.07;78.19;93895.06;4959961;28;20501;-79
2023/01/26 09:04:15;;;;;;;11.82;6.90;;;;;;;-3.81;78.24;93925.88;4961697;28;20538;-79
2023/01/26 09:06:40;;;;;;;9.32;7.05;;;;;;;-3.99;77.87;93863.56;4979084;28;20022;-80
2023/01/26 09:09:08;;;;;;;9.50;6.80;;;;;;;-3.79;78.01;93923.03;4977331;28;20201;-79
2023/01/26 09:11:34;;;;;;;10.02;7.25;;;;;;;-3.75;77.72;93924.97;4979413;28;20038;-80
2023/01/26 09:13:59;;;;;;;8.52;7.00;;;;;;;-3.59;77.79;93921.75;4977644;28;20525;-80
2023/01/26 09:16:24;;;;;;;13.63;7.45;;;;;;;-3.96;77.58;93868.34;4978408;28;20065;-79
2023/01/26 09:18:51;;;;;;;8.68;7.25;;;;;;;-3.63;77.44;93917.22;4979489;28;20418;-79
2023/01/26 09:21:18;;;;;;;12.55;7.65;;;;;;;-3.64;77.20;93898.22;4979657;28;20036;-80
2023/01/26 09:23:43;;;;;;;15.88;8.60;;;;;;;-3.74;77.02;93874.59;4978979;28;20042;-80
2023/01/26 09:26:09;;;;;;;10.65;7.53;;;;;;;-3.81;77.29;93873.91;4977858;28;20100;-79
2023/01/26 09:28:34;;;;;;;8.60;7.07;;;;;;;-3.71;77.35;93894.16;4957363;28;20042;-78
2023/01/26 09:31:09;;;;;;;16.08;8.05;;;;;;;-3.70;77.70;93888.72;4975807;28;20034;-78
2023/01/26 09:33:35;;;;;;;10.18;7.15;;;;;;;-3.79;77.50;93858.88;4975941;28;20025;-80
2023/01/26 09:36:05;;;;;;;11.63;7.15;;;;;;;-3.67;77.71;93859.69;4975688;28;20380;-79
2023/01/26 09:38:31;;;;;;;11.50;8.10;;;;;;;-3.73;77.61;93829.41;4975500;28;20050;-79
2023/01/26 09:41:21;;;;;;;12.90;7.90;;;;;;;-3.77;77.31;93833.47;4974870;28;20142;-79
2023/01/26 09:43:53;;;;;;;16.05;7.68;;;;;;;-3.59;77.54;93882.75;4957560;28;20031;-79
2023/01/26 09:46:25;;;;;;;15.65;7.85;;;;;;;-3.45;77.64;93888.53;4974201;28;20073;-79
2023/01/26 09:48:53;;;;;;;8.50;5.97;;;;;;;-3.43;77.50;93889.09;4975718;28;20037;-79
2023/01/26 09:51:31;;;;;;;7.85;6.60;;;;;;;-3.65;77.49;93860.25;4977198;28;20141;-79
2023/01/26 09:54:01;;;;;;;10.23;6.20;;;;;;;-3.58;77.09;93847.16;4978342;28;20145;-80
2023/01/26 09:56:31;;;;;;;14.27;8.55;;;;;;;-3.85;77.32;93800.00;4975906;28;20035;-81
2023/01/26 09:59:15;;;;;;;16.33;8.40;;;;;;;-3.42;77.37;93867.28;4975411;28;20514;-79
2023/01/26 10:01:40;;;;;;;11.40;7.50;;;;;;;-3.43;77.35;93870.13;4976607;28;20050;-79
2023/01/26 10:04:31;;;;;;;13.32;7.20;;;;;;;-3.55;78.56;93836.28;4978161;28;20581;-83
2023/01/26 10:06:58;;;;;;;9.70;6.68;;;;;;;-2.87;78.34;93859.91;4977091;28;20050;-80
2023/01/26 10:09:28;;;;;;;9.50;6.68;;;;;;;-3.02;76.21;93838.00;4980571;28;20061;-80
2023/01/26 10:12:20;;;;;;;9.98;7.88;;;;;;;-3.26;76.13;93806.78;4975708;28;20523;-79
2023/01/26 10:14:56;;;;;;;7.88;6.15;;;;;;;-3.19;76.21;93835.28;4958288;28;20053;-79
2023/01/26 10:17:30;;;;;;;8.05;6.00;;;;;;;-3.21;76.78;93826.91;4975329;28;20088;-80
2023/01/26 10:20:04;;;;;;;11.35;7.25;;;;;;;-3.38;76.61;93800.03;4956611;28;20071;-80
2023/01/26 10:22:42;;;;;;;11.32;6.50;;;;;;;-3.27;77.18;93794.78;4977398;28;20590;-79
2023/01/26 10:25:25;;;;;;;10.55;7.35;;;;;;;-3.32;76.76;93781.72;4978035;28;20042;-79
2023/01/26 10:27:51;;;;;;;8.90;7.10;;;;;;;-3.27;76.61;93784.38;4975805;28;20026;-79
2023/01/26 10:30:19;;;;;;;10.15;6.38;;;;;;;-3.24;76.61;93790.97;4973609;28;20015;-79
2023/01/26 10:32:49;;;;;;;11.05;5.78;;;;;;;-3.26;76.29;93777.38;4976278;28;20045;-79
2023/01/26 10:35:20;;;;;;;8.68;5.30;;;;;;;-3.20;75.96;93784.28;4974057;28;20065;-77
2023/01/26 10:37:46;;;;;;;11.20;6.07;;;;;;;-3.35;76.27;93747.53;4963983;28;20976;-78
2023/01/26 10:40:12;;;;;;;9.07;5.80;;;;;;;-3.34;76.60;93743.94;4973077;28;20055;-77
2023/01/26 10:42:38;;;;;;;9.73;6.25;;;;;;;-3.33;76.20;93740.31;4971054;28;20924;-79
2023/01/26 10:45:26;;;;;;;10.23;5.93;;;;;;;-3.30;76.68;93729.44;4957090;28;20040;-79
2023/01/26 10:48:25;;;;;;;7.57;5.82;;;;;;;-3.29;76.08;93721.41;4973614;28;20065;-77
2023/01/26 10:50:52;;;;;;;17.83;5.80;;;;;;;-3.29;76.13;93725.81;4944055;28;20050;-77
2023/01/26 10:53:28;;;;;;;9.13;5.20;;;;;;;-3.29;75.75;93710.22;4972941;28;20130;-78
2023/01/26 10:56:10;;;;;;;6.32;5.60;;;;;;;-3.22;75.89;93716.88;4976061;28;20097;-78
2023/01/26 10:58:56;;;;;;;11.63;5.97;;;;;;;-2.98;75.77;93722.81;4966886;28;20035;-77
2023/01/26 11:01:26;;;;;;;;;;;;;;;-2.90;75.44;93719.03;4945587;28;20324;-78
2023/01/26 11:04:10;;;;;;;13.88;5.00;;;;;;;-3.04;75.26;93684.69;4953486;28;19914;-79
2023/01/26 11:06:36;;;;;;;13.05;5.60;;;;;;;-2.96;74.90;93702.53;4956869;28;20102;-78
2023/01/26 11:09:14;;;;;;;7.30;4.95;;;;;;;-3.01;75.07;93696.44;4957987;28;20018;-78
2023/01/26 11:11:40;;;;;;;6.70;5.32;;;;;;;-2.92;74.78;93690.63;4969833;28;20042;-78
2023/01/26 11:14:12;;;;;;;5.55;5.03;;;;;;;-2.99;75.07;93679.59;4957646;28;20062;-79
2023/01/26 11:16:40;;;;;;;11.27;6.57;;;;;;;-2.89;75.14;93682.38;4957060;28;20031;-78
2023/01/26 11:19:15;;;;;;;8.00;6.32;;;;;;;-2.96;75.40;93676.50;4958878;28;20051;-78
2023/01/26 11:22:07;;;;;;;8.05;5.60;;;;;;;-2.79;75.57;93674.75;4957472;28;20030;-77
2023/01/26 11:24:39;;;;;;;8.02;5.68;;;;;;;-2.87;75.08;93664.72;4953511;28;20035;-77
2023/01/26 11:27:26;;;;;;;9.90;6.30;;;;;;;-2.96;75.27;93663.50;4952761;28;20042;-77
2023/01/26 11:30:00;;;;;;;10.57;6.32;;;;;;;-2.86;75.72;93655.88;4962738;28;20450;-78
2023/01/26 11:32:41;;;;;;;7.90;6.47;;;;;;;-2.86;75.46;93663.69;4961097;28;20113;-77
2023/01/26 11:35:06;;;;;;;8.13;5.57;;;;;;;-2.88;74.96;93660.53;4962116;28;20104;-78
2023/01/26 11:37:56;;;;;;;10.25;6.68;;;;;;;-2.79;75.29;93661.75;4959701;28;20783;-78
2023/01/26 11:40:31;;;;;;;6.72;5.63;;;;;;;-2.75;75.09;93657.66;4949784;28;20071;-79
2023/01/26 11:43:15;;;;;;;7.95;5.43;;;;;;;-2.80;75.08;93647.16;4974392;28;20066;-79
2023/01/26 11:46:19;;;;;;;10.00;7.38;;;;;;;-2.52;76.40;93611.66;4976095;28;20511;-79
2023/01/26 11:48:57;;;;;;;12.88;5.32;;;;;;;-2.09;75.20;93653.47;4898553;29;20032;-80
2023/01/26 11:51:36;;;;;;;11.40;5.63;;;;;;;-2.20;74.36;93630.91;4879123;29;20368;-79
2023/01/26 11:54:17;;;;;;;13.80;7.38;;;;;;;-2.18;74.07;93654.09;4935275;28;20065;-79
2023/01/26 11:57:18;;;;;;;6.78;5.75;;;;;;;-2.84;73.93;93601.78;4949558;28;20125;-78
2023/01/26 11:59:51;;;;;;;6.25;5.65;;;;;;;-2.91;74.95;93624.56;4936555;28;20043;-78
2023/01/26 12:02:27;;;;;;;8.95;5.40;;;;;;;-2.79;75.80;93633.13;4977641;28;20490;-78
2023/01/26 12:04:54;;;;;;;6.70;5.80;;;;;;;-3.04;75.92;93617.06;4979360;28;20065;-77
2023/01/26 12:07:53;;;;;;;9.70;6.10;;;;;;;-2.79;76.00;93634.94;4977657;28;20046;-78
2023/01/26 12:10:26;;;;;;;8.13;5.13;;;;;;;-2.81;75.98;93627.34;4976994;28;20053;-77
2023/01/26 12:13:05;;;;;;;9.48;6.25;;;;;;;-2.80;76.39;93625.53;4977141;28;20081;-78
2023/01/26 12:15:33;;;;;;;6.22;5.22;;;;;;;-3.06;76.21;93610.50;4955196;28;20027;-77
2023/01/26 12:18:08;;;;;;;7.25;6.25;;;;;;;-2.95;76.94;93612.25;4976070;28;20064;-76
2023/01/26 12:20:47;;;;;;;;;;;;;;;-2.98;76.80;93597.91;4956916;28;20409;-77